createdAt,value
2019-03-16T00:01:12.870Z,0.47
2019-03-16T00:03:50.765Z,0.90
2019-03-16T00:06:22.318Z,0.50
2019-03-16T00:08:51.044Z,0.60
2019-03-16T00:11:21.278Z,0.63
2019-03-16T00:13:59.513Z,0.60
2019-03-16T00:16:28.247Z,0.63
2019-03-16T00:19:00.031Z,0.40
2019-03-16T00:21:29.524Z,0.40
2019-03-16T00:26:41.643Z,0.33
2019-03-16T00:29:11.947Z,0.27
2019-03-16T00:31:41.724Z,0.30
2019-03-16T00:34:19.751Z,0.30
2019-03-16T00:36:50.254Z,0.30
2019-03-16T00:39:19.258Z,0.30
2019-03-16T00:41:48.410Z,0.40
2019-03-16T00:44:26.499Z,0.40
2019-03-16T00:46:55.488Z,0.50
2019-03-16T00:49:24.239Z,0.40
2019-03-16T00:51:52.918Z,0.50
2019-03-16T00:54:30.814Z,0.40
2019-03-16T00:56:59.814Z,0.40
2019-03-16T00:59:28.583Z,0.40
2019-03-16T01:01:58.700Z,0.40
2019-03-16T01:04:36.816Z,0.40
2019-03-16T01:07:05.550Z,0.43
2019-03-16T01:09:34.722Z,0.40
2019-03-16T01:12:03.811Z,0.40
2019-03-16T01:14:41.784Z,0.63
2019-03-16T01:17:11.018Z,0.37
2019-03-16T01:19:40.271Z,0.50
2019-03-16T01:22:09.304Z,0.50
2019-03-16T01:24:49.213Z,0.40
2019-03-16T01:27:18.263Z,0.43
2019-03-16T01:29:49.377Z,0.80
2019-03-16T01:32:18.454Z,0.87
2019-03-16T01:34:48.208Z,0.80
2019-03-16T01:37:18.172Z,0.90
2019-03-16T01:39:49.187Z,0.80
2019-03-16T01:42:18.428Z,0.80
2019-03-16T01:44:57.094Z,0.90
2019-03-16T01:47:28.948Z,0.70
2019-03-16T01:49:58.351Z,0.80
2019-03-16T01:52:27.230Z,0.90
2019-03-16T01:55:06.565Z,0.80
2019-03-16T01:57:36.469Z,1.10
2019-03-16T02:00:08.084Z,0.90
2019-03-16T02:02:37.250Z,0.90
2019-03-16T02:05:15.355Z,1.27
2019-03-16T02:07:44.559Z,0.90
2019-03-16T02:10:28.433Z,1.40
2019-03-16T02:12:57.454Z,1.10
2019-03-16T02:15:26.420Z,1.20
2019-03-16T02:17:57.365Z,1.40
2019-03-16T02:20:38.721Z,1.40
2019-03-16T02:23:07.447Z,1.50
2019-03-16T02:25:37.407Z,1.23
2019-03-16T02:28:06.653Z,1.40
2019-03-16T02:33:21.708Z,1.17
2019-03-16T02:35:51.132Z,1.20
2019-03-16T02:38:23.204Z,1.40
2019-03-16T02:41:04.083Z,1.10
2019-03-16T02:43:33.812Z,1.20
2019-03-16T02:46:02.596Z,1.30
2019-03-16T02:48:31.534Z,1.27
2019-03-16T02:51:10.123Z,1.10
2019-03-16T02:53:38.928Z,1.30
2019-03-16T02:56:08.404Z,1.30
2019-03-16T02:58:37.115Z,1.27
2019-03-16T03:01:19.156Z,1.40
2019-03-16T03:03:49.859Z,0.90
2019-03-16T03:06:18.747Z,1.00
2019-03-16T03:08:48.009Z,1.20
2019-03-16T03:11:27.315Z,1.20
2019-03-16T03:13:56.412Z,0.90
2019-03-16T03:16:28.300Z,1.27
2019-03-16T03:19:00.699Z,1.00
2019-03-16T03:21:38.762Z,0.43
2019-03-16T03:24:08.105Z,0.60
2019-03-16T03:26:36.929Z,0.60
2019-03-16T03:29:06.062Z,0.90
2019-03-16T03:31:44.863Z,0.93
2019-03-16T03:34:13.843Z,0.63
2019-03-16T03:36:44.352Z,0.70
2019-03-16T03:39:13.864Z,0.83
2019-03-16T03:42:07.281Z,0.97
2019-03-16T03:44:36.107Z,0.80
2019-03-16T03:47:07.689Z,1.03
2019-03-16T03:49:36.952Z,1.00
2019-03-16T03:52:15.356Z,1.07
2019-03-16T03:54:44.067Z,1.07
2019-03-16T03:57:16.280Z,1.03
2019-03-16T03:59:45.078Z,1.10
2019-03-16T04:02:23.885Z,1.13
2019-03-16T04:04:52.719Z,1.17
2019-03-16T04:07:21.416Z,1.23
2019-03-16T04:09:50.293Z,1.30
2019-03-16T04:12:28.682Z,1.20
2019-03-16T04:15:00.114Z,1.27
2019-03-16T04:17:28.917Z,1.10
2019-03-16T04:19:59.170Z,1.20
2019-03-16T04:22:41.567Z,1.50
2019-03-16T04:25:11.946Z,1.30
2019-03-16T04:27:40.984Z,1.50
2019-03-16T04:30:09.746Z,1.43
2019-03-16T04:32:49.527Z,1.60
2019-03-16T04:35:18.365Z,1.47
2019-03-16T04:37:47.076Z,1.53
2019-03-16T04:40:16.060Z,1.70
2019-03-16T04:42:55.422Z,1.90
2019-03-16T04:45:24.420Z,1.50
2019-03-16T04:47:53.381Z,1.77
2019-03-16T04:50:22.619Z,1.90
2019-03-16T04:53:00.398Z,2.00
2019-03-16T04:55:29.346Z,1.60
2019-03-16T04:57:58.211Z,1.70
2019-03-16T05:00:27.287Z,2.47
2019-03-16T05:02:56.577Z,1.87
2019-03-16T05:05:25.582Z,1.50
2019-03-16T05:07:54.368Z,1.50
2019-03-16T05:10:23.173Z,1.80
2019-03-16T05:13:12.812Z,1.93
2019-03-16T05:15:43.624Z,1.80
2019-03-16T05:18:13.106Z,1.87
2019-03-16T05:20:43.612Z,2.30
2019-03-16T05:23:21.913Z,2.27
2019-03-16T05:25:53.489Z,2.57
2019-03-16T05:28:22.698Z,3.20
2019-03-16T05:30:51.383Z,2.93
2019-03-16T05:33:56.229Z,3.03
2019-03-16T05:36:24.700Z,3.40
2019-03-16T05:38:53.591Z,3.20
2019-03-16T05:44:21.138Z,2.63
2019-03-16T05:46:50.460Z,3.27
2019-03-16T05:49:19.782Z,3.30
2019-03-16T05:51:59.261Z,3.47
2019-03-16T05:54:29.240Z,2.90
2019-03-16T05:56:59.501Z,3.13
2019-03-16T05:59:30.493Z,3.40
2019-03-16T06:04:54.524Z,4.33
2019-03-16T06:07:23.998Z,4.03
2019-03-16T06:09:52.839Z,4.17
2019-03-16T06:12:30.672Z,3.10
2019-03-16T06:15:00.362Z,3.23
2019-03-16T06:17:29.511Z,3.87
2019-03-16T06:20:01.072Z,3.60
2019-03-16T06:25:16.910Z,3.53
2019-03-16T06:27:46.029Z,4.00
2019-03-16T06:30:14.838Z,4.03
2019-03-16T06:32:57.333Z,3.20
2019-03-16T07:59:58.675Z,8.60
2019-03-16T08:02:31.416Z,9.07
2019-03-16T10:02:07.398Z,3.30
2019-03-16T10:04:51.257Z,3.33
2019-03-16T10:07:22.786Z,3.20
2019-03-16T10:09:51.665Z,3.30
2019-03-16T10:12:21.933Z,3.40
2019-03-16T10:15:13.114Z,3.30
2019-03-16T10:17:38.151Z,3.70
2019-03-16T10:20:07.160Z,3.20
2019-03-16T10:22:39.417Z,2.97
2019-03-16T10:25:19.268Z,2.83
2019-03-16T10:28:01.836Z,2.47
2019-03-16T10:30:34.152Z,3.13
2019-03-16T10:33:04.027Z,3.07
2019-03-16T10:38:27.010Z,3.57
2019-03-16T16:35:34.074Z,0.70
2019-03-16T16:38:03.550Z,0.70
2019-03-16T16:43:18.858Z,0.70
2019-03-16T16:48:38.745Z,15.97
2019-03-16T16:53:53.280Z,1.30
2019-03-16T16:59:14.050Z,0.80
2019-03-16T17:04:21.996Z,0.93
2019-03-16T17:09:37.541Z,1.20
2019-03-16T17:15:12.697Z,0.90
2019-03-16T17:17:43.910Z,1.03
2019-03-16T17:20:22.067Z,1.20
2019-03-16T17:22:55.457Z,2.60
2019-03-16T17:28:14.798Z,1.47
2019-03-16T17:33:34.783Z,1.47
2019-03-16T17:38:51.162Z,1.10
2019-03-16T17:43:57.969Z,1.10
2019-03-16T17:49:02.685Z,1.07
2019-03-16T17:54:17.287Z,1.40
2019-03-16T17:59:34.705Z,1.80
2019-03-16T18:04:49.062Z,2.27
2019-03-16T18:09:58.052Z,1.60
2019-03-16T18:12:26.785Z,1.80
2019-03-16T18:14:57.801Z,1.93
2019-03-16T18:17:36.402Z,1.80
2019-03-16T18:20:06.055Z,1.00
2019-03-16T18:22:37.661Z,1.40
2019-03-16T18:25:08.528Z,1.60
2019-03-16T18:27:37.548Z,1.60
2019-03-16T18:30:07.829Z,1.57
2019-03-16T18:32:36.506Z,1.57
2019-03-16T18:35:08.386Z,1.80
2019-03-16T18:40:13.430Z,2.30
2019-03-16T18:42:45.251Z,2.70
2019-03-16T18:45:18.733Z,2.43
2019-03-16T18:50:23.225Z,2.60
2019-03-16T18:52:52.017Z,4.10
2019-03-16T19:02:37.517Z,4.70
2019-03-16T19:05:06.877Z,4.93
2019-03-16T19:19:07.169Z,5.83
2019-03-16T19:21:36.311Z,5.17
2019-03-16T19:24:05.292Z,5.90
2019-03-16T19:26:43.316Z,6.50
2019-03-16T19:29:13.719Z,6.27
2019-03-16T19:42:48.104Z,8.77
2019-03-16T19:45:17.105Z,8.70
2019-03-16T19:47:54.987Z,8.43
2019-03-16T19:50:23.882Z,7.63
2019-03-16T19:53:02.876Z,7.80
2019-03-16T19:55:33.544Z,7.50
2019-03-16T19:58:10.689Z,9.63
2019-03-16T20:00:40.022Z,9.10
2019-03-16T20:03:08.918Z,9.13
2019-03-16T20:05:37.733Z,8.83
2019-03-16T20:12:10.090Z,8.20
2019-03-16T20:14:39.544Z,7.93
2019-03-16T20:20:12.938Z,7.40
2019-03-16T20:23:07.073Z,7.23
2019-03-16T20:25:36.146Z,6.97
2019-03-16T20:28:14.368Z,6.97
2019-03-16T20:30:45.988Z,6.63
2019-03-16T20:33:14.770Z,6.33
2019-03-16T20:35:44.781Z,6.20
2019-03-16T20:38:22.748Z,5.90
2019-03-16T20:40:54.732Z,6.40
2019-03-16T20:43:23.453Z,5.90
2019-03-16T20:45:52.292Z,5.53
2019-03-16T20:48:30.099Z,6.30
2019-03-16T20:51:00.883Z,7.07
2019-03-16T20:53:31.237Z,7.70
2019-03-16T20:56:00.210Z,8.17
2019-03-16T20:58:40.034Z,8.67
2019-03-16T21:01:09.029Z,8.57
2019-03-16T21:03:38.267Z,8.87
2019-03-16T21:06:07.022Z,8.80
2019-03-16T21:11:18.893Z,8.90
2019-03-16T21:13:47.649Z,8.87
2019-03-16T21:16:16.406Z,8.97
2019-03-16T21:18:54.908Z,8.93
2019-03-16T21:21:23.769Z,8.83
2019-03-16T21:23:52.452Z,8.13
2019-03-16T21:26:23.921Z,8.33
2019-03-16T21:29:01.766Z,7.87
2019-03-16T21:31:30.820Z,7.13
2019-03-16T21:33:59.560Z,7.63
2019-03-16T21:36:36.914Z,8.00
2019-03-16T21:41:45.833Z,6.83
2019-03-16T21:44:14.572Z,6.97
2019-03-16T21:46:43.983Z,6.97
2019-03-16T21:49:22.148Z,8.03
2019-03-16T21:51:53.658Z,8.50
2019-03-16T21:54:22.368Z,7.30
2019-03-16T21:57:00.571Z,7.43
2019-03-16T22:02:13.100Z,7.23
2019-03-16T22:04:42.965Z,7.43
2019-03-16T22:07:11.863Z,8.20
2019-03-16T22:09:53.257Z,8.23
2019-03-16T22:12:22.051Z,7.97
2019-03-16T22:14:53.698Z,8.23
2019-03-16T22:17:22.385Z,8.10
2019-03-16T22:20:00.067Z,8.40
2019-03-16T22:22:31.861Z,7.30
2019-03-16T22:25:00.549Z,7.30
2019-03-16T22:27:29.236Z,6.90
2019-03-16T22:30:07.332Z,6.60
2019-03-16T22:32:37.400Z,6.20
2019-03-16T22:35:08.932Z,6.73
2019-03-16T22:37:36.884Z,6.90
2019-03-16T22:40:15.128Z,6.77
2019-03-16T22:42:46.800Z,6.97
2019-03-16T22:45:15.491Z,6.87
2019-03-16T22:47:44.465Z,6.70
2019-03-16T22:50:27.845Z,6.33
2019-03-16T22:52:56.735Z,6.23
2019-03-16T22:55:25.444Z,6.73
2019-03-16T22:57:54.163Z,6.50
2019-03-16T23:00:49.305Z,6.70
2019-03-16T23:03:18.025Z,6.67
2019-03-16T23:05:46.764Z,6.40
2019-03-16T23:08:15.471Z,6.53
2019-03-16T23:10:53.439Z,7.63
2019-03-16T23:13:22.111Z,7.73
2019-03-16T23:15:54.259Z,8.47
2019-03-16T23:18:22.969Z,7.93
2019-03-16T23:21:04.205Z,8.97
2019-03-16T23:23:32.901Z,8.77
2019-03-16T23:26:01.665Z,8.83
2019-03-16T23:28:30.369Z,8.43
2019-03-16T23:31:08.507Z,8.47
2019-03-16T23:33:37.202Z,9.20
2019-03-16T23:36:08.136Z,10.17
2019-03-16T23:38:36.848Z,9.90
2019-03-16T23:41:14.700Z,9.37
2019-03-16T23:43:52.635Z,10.13
2019-03-16T23:46:21.358Z,10.33
2019-03-16T23:48:50.309Z,10.67
2019-03-16T23:51:19.285Z,10.60
2019-03-16T23:53:57.518Z,10.63
2019-03-16T23:56:26.624Z,17.27
2019-03-16T23:58:57.258Z,12.03
